createdAt,value
2023-04-13T00:00:25.751Z,90.07
2023-04-13T00:02:56.051Z,89.83
2023-04-13T00:05:24.798Z,86.20
2023-04-13T00:07:53.163Z,88.33
2023-04-13T00:10:21.874Z,87.70
2023-04-13T00:12:50.074Z,86.79
2023-04-13T00:15:20.240Z,86.60
2023-04-13T00:17:48.464Z,87.28
2023-04-13T00:20:16.834Z,88.67
2023-04-13T00:22:45.357Z,88.94
2023-04-13T00:25:14.897Z,88.65
2023-04-13T00:27:43.867Z,89.54
2023-04-13T00:30:14.297Z,89.72
2023-04-13T00:32:44.964Z,88.71
2023-04-13T00:35:16.872Z,89.81
2023-04-13T00:37:47.045Z,89.60
2023-04-13T00:40:18.103Z,89.05
2023-04-13T00:42:46.112Z,88.90
2023-04-13T00:45:14.536Z,88.08
2023-04-13T00:47:46.640Z,87.58
2023-04-13T00:50:15.265Z,87.99
2023-04-13T00:52:43.685Z,87.21
2023-04-13T00:55:11.447Z,87.63
2023-04-13T00:57:40.686Z,87.62
2023-04-13T01:00:10.242Z,88.14
2023-04-13T01:02:41.941Z,87.44
2023-04-13T01:05:15.689Z,88.17
2023-04-13T01:07:55.442Z,88.07
2023-04-13T01:10:29.008Z,87.99
2023-04-13T01:13:09.501Z,87.91
2023-04-13T01:15:46.917Z,86.76
2023-04-13T01:18:18.529Z,87.20
2023-04-13T01:20:49.436Z,86.83
2023-04-13T01:23:26.508Z,86.19
2023-04-13T01:25:58.648Z,86.61
2023-04-13T01:28:29.966Z,86.79
2023-04-13T01:31:00.748Z,87.15
2023-04-13T01:33:30.509Z,86.78
2023-04-13T01:36:02.240Z,87.22
2023-04-13T01:38:31.279Z,87.38
2023-04-13T01:41:01.481Z,87.29
2023-04-13T01:43:33.553Z,86.82
2023-04-13T01:46:10.207Z,87.27
2023-04-13T01:48:55.647Z,88.24
2023-04-13T01:51:39.115Z,87.47
2023-04-13T01:54:13.993Z,87.03
2023-04-13T01:56:45.426Z,87.28
2023-04-13T01:59:16.680Z,87.08
2023-04-13T02:01:45.227Z,87.68
2023-04-13T02:04:14.034Z,87.72
2023-04-13T02:06:43.538Z,87.17
2023-04-13T02:09:11.825Z,87.73
2023-04-13T02:11:39.518Z,87.61
2023-04-13T02:14:09.595Z,88.05
2023-04-13T02:16:38.957Z,87.45
2023-04-13T02:19:06.931Z,87.67
2023-04-13T02:21:34.948Z,87.06
2023-04-13T02:24:02.790Z,86.64
2023-04-13T02:26:30.388Z,86.85
2023-04-13T02:28:58.107Z,86.90
2023-04-13T02:31:26.055Z,86.25
2023-04-13T02:33:55.173Z,85.75
2023-04-13T02:36:24.998Z,85.93
2023-04-13T02:38:57.050Z,85.16
2023-04-13T02:41:29.751Z,85.15
2023-04-13T02:43:58.444Z,84.70
2023-04-13T02:46:31.337Z,84.30
2023-04-13T02:49:10.183Z,84.39
2023-04-13T02:51:44.652Z,84.18
2023-04-13T02:54:13.604Z,83.70
2023-04-13T02:56:46.100Z,83.78
2023-04-13T02:59:14.536Z,83.64
2023-04-13T03:01:45.980Z,83.09
2023-04-13T03:04:17.133Z,82.66
2023-04-13T03:06:46.363Z,83.17
2023-04-13T03:09:16.286Z,82.77
2023-04-13T03:11:49.562Z,82.67
2023-04-13T03:14:22.171Z,82.84
2023-04-13T03:16:58.738Z,83.00
2023-04-13T03:19:36.598Z,82.98
2023-04-13T03:22:05.428Z,83.61
2023-04-13T03:24:35.773Z,83.55
2023-04-13T03:27:09.794Z,82.78
2023-04-13T03:29:45.803Z,83.42
2023-04-13T03:32:19.823Z,82.80
2023-04-13T03:34:52.169Z,83.52
2023-04-13T03:37:19.806Z,83.03
2023-04-13T03:39:48.142Z,83.06
2023-04-13T03:42:20.508Z,82.93
2023-04-13T03:44:54.611Z,82.38
2023-04-13T03:47:22.375Z,83.21
2023-04-13T03:49:52.246Z,83.66
2023-04-13T03:52:20.394Z,82.99
2023-04-13T03:54:55.292Z,83.30
2023-04-13T03:57:23.894Z,83.75
2023-04-13T03:59:51.574Z,83.40
2023-04-13T04:02:28.470Z,83.30
2023-04-13T04:04:57.678Z,83.69
2023-04-13T04:07:25.586Z,83.78
2023-04-13T04:09:53.537Z,84.28
2023-04-13T04:12:24.724Z,84.09
2023-04-13T04:14:52.316Z,84.10
2023-04-13T04:17:25.491Z,84.43
2023-04-13T04:19:53.116Z,84.44
2023-04-13T04:22:29.770Z,85.96
2023-04-13T04:24:59.085Z,86.28
2023-04-13T04:27:27.596Z,85.67
2023-04-13T04:29:59.327Z,84.93
2023-04-13T04:32:35.861Z,84.81
2023-04-13T04:35:12.010Z,84.28
2023-04-13T04:37:49.748Z,83.95
2023-04-13T04:40:19.631Z,83.86
2023-04-13T04:42:47.394Z,83.26
2023-04-13T04:45:30.296Z,83.41
2023-04-13T04:48:00.542Z,83.23
2023-04-13T04:50:28.721Z,83.15
2023-04-13T04:53:24.460Z,83.25
2023-04-13T04:55:52.388Z,82.88
2023-04-13T04:58:37.944Z,82.85
2023-04-13T05:01:05.953Z,83.25
2023-04-13T05:03:34.560Z,84.16
2023-04-13T05:06:17.356Z,83.92
2023-04-13T05:08:46.896Z,84.09
2023-04-13T05:11:15.361Z,83.74
2023-04-13T05:13:43.041Z,83.81
2023-04-13T05:16:24.202Z,84.65
2023-04-13T05:18:53.914Z,83.62
2023-04-13T05:21:40.967Z,84.22
2023-04-13T05:24:11.384Z,84.47
2023-04-13T05:26:40.867Z,84.97
2023-04-13T05:29:09.321Z,85.68
2023-04-13T05:31:40.831Z,85.09
2023-04-13T05:34:08.573Z,84.68
2023-04-13T05:36:39.115Z,84.79
2023-04-13T05:39:13.870Z,85.36
2023-04-13T05:41:41.561Z,83.99
2023-04-13T05:44:09.706Z,84.19
2023-04-13T05:46:38.493Z,85.22
2023-04-13T05:49:07.339Z,84.65
2023-04-13T05:51:35.376Z,85.01
2023-04-13T05:54:03.261Z,84.18
2023-04-13T05:56:34.291Z,84.31
2023-04-13T05:59:03.133Z,84.04
2023-04-13T06:01:30.939Z,84.29
2023-04-13T06:03:58.965Z,84.07
2023-04-13T06:06:26.686Z,84.19
2023-04-13T06:08:54.468Z,82.83
2023-04-13T06:11:24.668Z,83.17
2023-04-13T06:13:53.922Z,84.03
2023-04-13T06:16:23.264Z,82.71
2023-04-13T06:18:51.855Z,82.93
2023-04-13T06:21:19.440Z,82.74
2023-04-13T06:23:49.216Z,82.10
2023-04-13T06:26:28.146Z,81.91
2023-04-13T06:28:59.185Z,80.95
2023-04-13T06:31:28.200Z,81.73
2023-04-13T06:34:00.271Z,82.88
2023-04-13T06:36:32.911Z,81.61
2023-04-13T06:39:04.149Z,80.27
2023-04-13T06:41:33.598Z,79.41
2023-04-13T06:44:16.818Z,80.24
2023-04-13T06:46:56.698Z,80.50
2023-04-13T06:49:25.987Z,79.61
2023-04-13T06:51:53.768Z,78.82
2023-04-13T06:54:22.054Z,79.20
2023-04-13T06:56:57.093Z,78.01
2023-04-13T06:59:26.151Z,78.75
2023-04-13T07:01:53.887Z,79.00
2023-04-13T07:04:21.722Z,79.41
2023-04-13T07:06:49.788Z,76.30
2023-04-13T07:09:17.451Z,77.83
2023-04-13T07:11:46.326Z,77.84
2023-04-13T07:14:15.929Z,75.20
2023-04-13T07:16:45.264Z,76.28
2023-04-13T07:19:14.779Z,77.53
2023-04-13T07:21:42.744Z,76.27
2023-04-13T07:24:10.371Z,74.99
2023-04-13T07:26:41.244Z,76.09
2023-04-13T07:29:13.446Z,76.29
2023-04-13T07:31:47.832Z,77.02
2023-04-13T07:34:15.571Z,76.55
2023-04-13T07:36:46.296Z,74.79
2023-04-13T07:39:18.772Z,76.45
2023-04-13T07:41:49.530Z,76.08
2023-04-13T07:44:23.419Z,77.30
2023-04-13T07:46:52.636Z,74.06
2023-04-13T07:49:21.050Z,74.46
2023-04-13T07:51:48.760Z,75.72
2023-04-13T07:54:17.739Z,74.19
2023-04-13T07:56:47.173Z,75.10
2023-04-13T07:59:15.737Z,74.64
2023-04-13T08:01:46.889Z,72.05
2023-04-13T08:04:16.312Z,74.45
2023-04-13T08:06:45.878Z,71.79
2023-04-13T08:09:13.862Z,71.71
2023-04-13T08:11:42.909Z,72.02
2023-04-13T08:14:11.989Z,72.82
2023-04-13T08:16:41.019Z,71.71
2023-04-13T08:19:11.145Z,71.73
2023-04-13T08:21:45.399Z,69.71
2023-04-13T08:24:13.167Z,70.91
2023-04-13T08:26:40.832Z,70.64
2023-04-13T08:29:08.951Z,70.28
2023-04-13T08:31:37.427Z,69.89
2023-04-13T08:34:06.970Z,69.96
2023-04-13T08:36:34.600Z,68.88
2023-04-13T08:39:10.227Z,68.33
2023-04-13T08:41:42.027Z,66.40
2023-04-13T08:44:13.353Z,66.14
2023-04-13T08:46:45.786Z,67.88
2023-04-13T08:49:14.784Z,68.73
2023-04-13T08:52:04.837Z,67.44
2023-04-13T08:54:35.099Z,69.00
2023-04-13T08:57:05.958Z,68.55
2023-04-13T08:59:34.498Z,69.20
2023-04-13T09:02:04.781Z,68.09
2023-04-13T09:04:44.109Z,69.09
2023-04-13T09:07:18.010Z,68.73
2023-04-13T09:09:48.386Z,68.26
2023-04-13T09:12:15.992Z,65.58
2023-04-13T09:14:45.198Z,68.20
2023-04-13T09:17:25.658Z,66.65
2023-04-13T09:19:56.279Z,65.13
2023-04-13T09:22:25.854Z,64.06
2023-04-13T09:24:54.980Z,65.43
2023-04-13T09:27:24.035Z,61.07
2023-04-13T09:29:53.126Z,64.19
2023-04-13T09:32:22.597Z,63.14
2023-04-13T09:35:01.578Z,62.77
2023-04-13T09:37:41.634Z,62.99
2023-04-13T09:40:13.070Z,62.02
2023-04-13T09:42:41.598Z,62.85
2023-04-13T09:45:10.402Z,63.36
2023-04-13T09:47:41.263Z,61.97
2023-04-13T09:50:19.342Z,59.39
2023-04-13T09:52:47.221Z,59.83
2023-04-13T09:55:17.960Z,56.91
2023-04-13T09:57:45.886Z,56.86
2023-04-13T10:00:20.597Z,57.61
2023-04-13T10:02:50.560Z,55.84
2023-04-13T10:05:19.716Z,55.79
2023-04-13T10:07:48.487Z,56.22
2023-04-13T10:10:17.730Z,58.21
2023-04-13T10:12:49.040Z,57.99
2023-04-13T10:15:30.087Z,61.19
2023-04-13T10:18:07.916Z,58.17
2023-04-13T10:20:36.766Z,57.88
2023-04-13T10:23:05.731Z,56.22
2023-04-13T10:25:38.325Z,56.45
2023-04-13T10:28:07.365Z,59.44
2023-04-13T10:30:35.199Z,59.13
2023-04-13T10:33:05.558Z,57.76
2023-04-13T10:35:37.475Z,58.72
2023-04-13T10:38:05.756Z,61.98
2023-04-13T10:40:45.269Z,60.17
2023-04-13T10:43:13.112Z,59.89
2023-04-13T10:45:40.908Z,60.25
2023-04-13T10:48:08.708Z,62.18
2023-04-13T10:50:37.896Z,63.24
2023-04-13T10:53:07.500Z,62.41
2023-04-13T10:55:35.961Z,63.05
2023-04-13T10:58:16.243Z,64.27
2023-04-13T11:00:47.085Z,65.80
2023-04-13T11:03:17.746Z,63.72
2023-04-13T11:05:46.034Z,62.48
2023-04-13T11:08:18.722Z,62.01
2023-04-13T11:10:52.423Z,61.27
2023-04-13T11:13:21.804Z,62.63
2023-04-13T11:15:50.522Z,62.67
2023-04-13T11:18:26.571Z,63.98
2023-04-13T11:20:54.805Z,62.26
2023-04-13T11:23:24.119Z,63.86
2023-04-13T11:25:54.692Z,60.85
2023-04-13T11:28:25.180Z,61.88
2023-04-13T11:30:54.546Z,62.13
2023-04-13T11:33:26.523Z,62.17
2023-04-13T11:35:55.290Z,64.38
2023-04-13T11:38:22.897Z,64.06
2023-04-13T11:40:56.770Z,63.57
2023-04-13T11:43:30.957Z,62.92
2023-04-13T11:45:58.878Z,63.30
2023-04-13T11:48:27.350Z,63.61
2023-04-13T11:50:56.390Z,63.84
2023-04-13T11:53:24.289Z,61.15
2023-04-13T11:55:53.680Z,61.72
2023-04-13T11:58:22.127Z,60.66
2023-04-13T12:00:51.195Z,61.15
2023-04-13T12:06:02.113Z,60.88
2023-04-13T12:08:30.708Z,62.93
2023-04-13T12:11:35.527Z,63.16
2023-04-13T12:14:05.888Z,63.11
2023-04-13T12:17:03.203Z,63.09
2023-04-13T12:19:27.420Z,60.42
2023-04-13T12:21:57.458Z,62.15
2023-04-13T12:24:33.728Z,61.55
2023-04-13T12:29:38.342Z,60.93
2023-04-13T12:32:14.699Z,58.58
2023-04-13T12:34:43.063Z,59.43
2023-04-13T12:37:11.802Z,60.18
2023-04-13T12:39:39.594Z,59.73
2023-04-13T12:42:07.413Z,59.47
2023-04-13T12:44:35.016Z,59.96
2023-04-13T12:47:03.432Z,61.33
2023-04-13T12:49:32.367Z,60.95
2023-04-13T12:52:00.353Z,59.73
2023-04-13T12:54:30.628Z,59.08
2023-04-13T12:56:59.826Z,57.48
2023-04-13T12:59:27.390Z,59.27
2023-04-13T13:01:55.130Z,57.55
2023-04-13T13:04:22.777Z,57.51
2023-04-13T13:06:52.520Z,56.94
2023-04-13T13:09:20.646Z,59.29
2023-04-13T13:11:48.248Z,59.01
2023-04-13T13:14:16.395Z,60.37
2023-04-13T13:16:44.041Z,60.02
2023-04-13T13:19:12.010Z,57.61
2023-04-13T13:21:39.582Z,59.00
2023-04-13T13:24:09.417Z,55.80
2023-04-13T13:27:00.222Z,56.19
2023-04-13T13:29:25.343Z,57.38
2023-04-13T13:31:53.073Z,59.48
2023-04-13T13:34:21.381Z,58.72
2023-04-13T13:36:49.490Z,58.51
2023-04-13T13:39:21.252Z,58.82
2023-04-13T13:41:48.879Z,61.27
2023-04-13T13:44:16.647Z,59.70
2023-04-13T13:46:44.318Z,58.20
2023-04-13T13:49:12.277Z,58.03
2023-04-13T13:51:57.375Z,59.69
2023-04-13T13:54:29.616Z,59.11
2023-04-13T13:56:57.584Z,58.49
2023-04-13T13:59:25.229Z,59.81
2023-04-13T14:01:52.958Z,57.61
2023-04-13T14:04:21.257Z,57.86
2023-04-13T14:06:49.913Z,60.02
2023-04-13T14:09:19.198Z,59.80
2023-04-13T14:11:48.335Z,59.97
2023-04-13T14:14:22.004Z,59.91
2023-04-13T14:16:50.165Z,58.58
2023-04-13T14:19:20.732Z,57.56
2023-04-13T14:21:48.968Z,57.60
2023-04-13T14:24:16.964Z,58.14
2023-04-13T14:26:44.552Z,59.46
2023-04-13T14:29:13.781Z,58.37
2023-04-13T14:31:41.442Z,61.12
2023-04-13T14:34:09.225Z,59.01
2023-04-13T14:36:36.863Z,60.27
2023-04-13T14:39:05.246Z,59.41
2023-04-13T14:41:32.853Z,59.79
2023-04-13T14:44:00.750Z,57.70
2023-04-13T14:46:29.735Z,58.17
2023-04-13T14:48:57.450Z,58.95
2023-04-13T14:51:25.235Z,57.76
2023-04-13T14:53:56.444Z,57.88
2023-04-13T14:56:26.056Z,58.35
2023-04-13T14:58:54.001Z,58.73
2023-04-13T15:01:22.540Z,59.40
2023-04-13T15:03:53.408Z,58.15
2023-04-13T15:06:21.179Z,59.41
2023-04-13T15:08:49.085Z,58.32
2023-04-13T15:11:16.644Z,60.27
2023-04-13T15:13:44.217Z,58.28
2023-04-13T15:16:11.996Z,58.36
2023-04-13T15:18:39.792Z,58.09
2023-04-13T15:21:08.705Z,57.04
2023-04-13T15:23:36.480Z,57.95
2023-04-13T15:26:04.446Z,55.97
2023-04-13T15:28:32.077Z,54.42
2023-04-13T15:31:00.285Z,56.06
2023-04-13T15:33:27.855Z,55.59
2023-04-13T15:35:55.705Z,57.04
2023-04-13T15:38:25.116Z,58.08
2023-04-13T15:40:52.907Z,56.50
2023-04-13T15:43:20.613Z,57.38
2023-04-13T15:45:48.548Z,57.46
2023-04-13T15:48:16.754Z,57.61
2023-04-13T15:50:44.321Z,57.58
2023-04-13T15:53:11.938Z,56.67
2023-04-13T15:55:42.504Z,57.69
2023-04-13T15:58:10.088Z,58.91
2023-04-13T16:00:37.909Z,57.87
2023-04-13T16:03:05.834Z,58.26
2023-04-13T16:05:33.718Z,58.40
2023-04-13T16:08:01.519Z,58.31
2023-04-13T16:10:29.337Z,59.82
2023-04-13T16:12:58.377Z,60.73
2023-04-13T16:15:26.623Z,61.24
2023-04-13T16:17:56.818Z,61.61
2023-04-13T16:20:28.473Z,59.90
2023-04-13T16:22:59.299Z,59.15
2023-04-13T16:25:27.185Z,59.03
2023-04-13T16:27:56.124Z,58.31
2023-04-13T16:30:25.988Z,54.27
2023-04-13T16:32:53.632Z,54.12
2023-04-13T16:35:21.503Z,54.59
2023-04-13T16:37:49.118Z,56.42
2023-04-13T16:40:17.596Z,58.39
2023-04-13T16:42:46.137Z,59.61
2023-04-13T16:45:15.180Z,60.43
2023-04-13T16:47:44.589Z,60.31
2023-04-13T16:50:13.244Z,61.42
2023-04-13T16:52:41.142Z,62.11
2023-04-13T16:55:13.956Z,62.36
2023-04-13T16:57:42.642Z,63.16
2023-04-13T17:00:11.424Z,62.03
2023-04-13T17:02:41.809Z,62.35
2023-04-13T17:05:12.858Z,62.00
2023-04-13T17:07:41.986Z,63.61
2023-04-13T17:10:12.374Z,61.40
2023-04-13T17:12:40.295Z,61.56
2023-04-13T17:15:09.537Z,62.66
2023-04-13T17:17:38.167Z,62.09
2023-04-13T17:20:07.638Z,63.40
2023-04-13T17:22:36.699Z,63.89
2023-04-13T17:25:05.108Z,63.07
2023-04-13T17:27:32.676Z,61.52
2023-04-13T17:30:00.819Z,62.03
2023-04-13T17:32:28.517Z,62.61
2023-04-13T17:34:57.196Z,62.53
2023-04-13T17:37:24.916Z,62.81
2023-04-13T17:39:53.949Z,63.03
2023-04-13T17:42:21.675Z,63.93
2023-04-13T17:44:50.088Z,64.79
2023-04-13T17:47:18.060Z,64.23
2023-04-13T17:49:45.640Z,64.69
2023-04-13T17:52:13.415Z,65.10
2023-04-13T17:54:41.025Z,65.43
2023-04-13T17:57:10.441Z,65.22
2023-04-13T17:59:38.079Z,65.48
2023-04-13T18:02:05.866Z,66.75
2023-04-13T18:04:33.775Z,70.29
2023-04-13T18:07:01.652Z,71.80
2023-04-13T18:09:29.395Z,70.64
2023-04-13T18:11:57.289Z,70.59
2023-04-13T18:14:26.386Z,70.26
2023-04-13T18:16:54.312Z,70.35
2023-04-13T18:19:22.071Z,70.27
2023-04-13T18:21:50.038Z,70.37
2023-04-13T18:24:17.933Z,70.49
2023-04-13T18:26:45.945Z,70.56
2023-04-13T18:29:14.003Z,70.99
2023-04-13T18:31:43.092Z,70.70
2023-04-13T18:34:13.344Z,70.99
2023-04-13T18:36:42.212Z,70.62
2023-04-13T18:39:09.902Z,71.12
2023-04-13T18:41:39.652Z,71.53
2023-04-13T18:44:09.364Z,71.95
2023-04-13T18:46:37.157Z,72.05
2023-04-13T18:49:06.131Z,71.78
2023-04-13T18:51:33.998Z,72.16
2023-04-13T18:54:02.044Z,71.83
2023-04-13T18:56:29.915Z,71.98
2023-04-13T18:58:57.482Z,71.89
2023-04-13T19:01:25.289Z,71.77
2023-04-13T19:03:53.611Z,71.90
2023-04-13T19:06:23.810Z,71.39
2023-04-13T19:08:51.418Z,71.27
2023-04-13T19:11:19.941Z,70.85
2023-04-13T19:13:48.043Z,71.52
2023-04-13T19:16:15.867Z,71.34
2023-04-13T19:18:43.476Z,72.01
2023-04-13T19:21:11.473Z,71.95
2023-04-13T19:23:40.764Z,71.78
2023-04-13T19:26:08.474Z,72.16
2023-04-13T19:28:36.506Z,70.95
2023-04-13T19:31:04.263Z,70.70
2023-04-13T19:33:33.438Z,71.06
2023-04-13T19:36:01.677Z,71.60
2023-04-13T19:38:29.273Z,72.26
2023-04-13T19:40:58.666Z,71.99
2023-04-13T19:43:28.040Z,73.00
2023-04-13T19:45:56.405Z,73.79
2023-04-13T19:48:24.302Z,73.10
2023-04-13T19:50:51.888Z,74.07
2023-04-13T19:53:19.617Z,73.97
2023-04-13T19:55:47.187Z,74.04
2023-04-13T19:58:16.813Z,74.30
2023-04-13T20:00:47.374Z,73.85
2023-04-13T20:03:15.361Z,74.76
2023-04-13T20:05:43.125Z,74.81
2023-04-13T20:08:11.024Z,74.67
2023-04-13T20:10:38.601Z,74.81
2023-04-13T20:13:06.453Z,74.68
2023-04-13T20:15:35.504Z,74.89
2023-04-13T20:18:06.988Z,74.54
2023-04-13T20:20:35.200Z,75.68
2023-04-13T20:23:03.102Z,75.76
2023-04-13T20:25:30.830Z,75.83
2023-04-13T20:27:58.533Z,75.57
2023-04-13T20:30:26.661Z,75.29
2023-04-13T20:32:55.873Z,75.55
2023-04-13T20:35:23.507Z,75.92
2023-04-13T20:37:52.219Z,76.07
2023-04-13T20:40:26.598Z,76.30
2023-04-13T20:42:55.206Z,76.30
2023-04-13T20:45:23.231Z,77.70
2023-04-13T20:47:53.162Z,77.50
2023-04-13T20:50:25.011Z,77.79
2023-04-13T20:52:56.910Z,79.09
2023-04-13T20:55:26.217Z,79.81
2023-04-13T20:57:54.117Z,80.43
2023-04-13T21:00:24.866Z,80.45
2023-04-13T21:02:55.100Z,81.83
2023-04-13T21:05:24.248Z,81.42
2023-04-13T21:07:51.846Z,81.83
2023-04-13T21:10:19.487Z,82.27
2023-04-13T21:12:47.207Z,82.24
2023-04-13T21:15:15.003Z,82.71
2023-04-13T21:17:42.753Z,82.73
2023-04-13T21:20:11.653Z,82.74
2023-04-13T21:22:40.821Z,82.79
2023-04-13T21:25:08.770Z,83.39
2023-04-13T21:27:36.410Z,83.40
2023-04-13T21:30:04.240Z,83.76
2023-04-13T21:32:32.029Z,83.95
2023-04-13T21:35:00.379Z,83.79
2023-04-13T21:37:28.855Z,83.79
2023-04-13T21:39:58.569Z,84.13
2023-04-13T21:42:26.217Z,84.29
2023-04-13T21:44:56.095Z,84.04
2023-04-13T21:47:24.018Z,84.09
2023-04-13T21:49:51.681Z,84.14
2023-04-13T21:52:19.243Z,84.27
2023-04-13T21:54:47.199Z,84.21
2023-04-13T21:57:16.303Z,84.62
2023-04-13T21:59:43.871Z,85.50
2023-04-13T22:02:11.543Z,85.58
2023-04-13T22:04:39.285Z,85.60
2023-04-13T22:07:07.085Z,85.09
2023-04-13T22:09:34.701Z,86.16
2023-04-13T22:12:02.317Z,86.26
2023-04-13T22:14:31.726Z,86.63
2023-04-13T22:16:59.446Z,86.58
2023-04-13T22:19:27.328Z,86.74
2023-04-13T22:21:54.874Z,87.30
2023-04-13T22:24:22.682Z,87.92
2023-04-13T22:26:51.200Z,88.04
2023-04-13T22:29:18.822Z,87.95
2023-04-13T22:31:47.866Z,87.50
2023-04-13T22:34:15.689Z,87.03
2023-04-13T22:36:43.251Z,88.34
2023-04-13T22:39:10.868Z,88.41
2023-04-13T22:41:38.473Z,89.06
2023-04-13T22:44:06.437Z,88.39
2023-04-13T22:46:34.229Z,88.85
2023-04-13T22:49:04.768Z,88.44
2023-04-13T22:51:38.844Z,88.46
2023-04-13T22:54:06.863Z,88.97
2023-04-13T22:56:34.460Z,88.24
2023-04-13T22:59:03.159Z,88.21
2023-04-13T23:01:31.196Z,87.94
2023-04-13T23:03:59.090Z,88.02
2023-04-13T23:06:28.438Z,87.78
2023-04-13T23:08:56.573Z,87.98
2023-04-13T23:11:24.135Z,87.79
2023-04-13T23:13:55.017Z,87.77
2023-04-13T23:16:22.921Z,87.95
2023-04-13T23:18:50.587Z,87.63
2023-04-13T23:21:18.186Z,87.72
2023-04-13T23:23:47.385Z,87.21
2023-04-13T23:26:14.976Z,86.58
2023-04-13T23:28:43.025Z,86.68
2023-04-13T23:31:10.807Z,86.62
2023-04-13T23:33:38.865Z,87.02
2023-04-13T23:36:07.028Z,87.41
2023-04-13T23:38:34.829Z,87.05
2023-04-13T23:41:03.805Z,86.66
2023-04-13T23:43:31.508Z,86.49
2023-04-13T23:45:59.130Z,86.52
2023-04-13T23:48:27.349Z,86.87
2023-04-13T23:50:55.353Z,86.60
2023-04-13T23:53:23.239Z,86.79
2023-04-13T23:55:51.007Z,86.67
2023-04-13T23:58:20.070Z,86.25
